PAY1192 TIST-MUCU
Flight info
| Callsign | PAY1192 |
|---|---|
| Flight time | 2h 21m |
| Altitude | 20000 |
| Route | PALCO7 PALCO RTE6 SJU RTE2 BQN B520 ANTEX UL577 ETBOD UA890 DEPSI KAVON4C |
| Aircraft | DH8D/M-SDE2E3FGRY/H |
Departure
| Time | 2026-04-22 22:33 |
|---|---|
| Airport | Cyril E. King Airport (TIST) |
Arrival
| Time | 2026-04-23 00:55 |
|---|---|
| Airport | Antonio Maceo International Airport (MUCU) |
| Time | Latitude | Longitude | Altitude | Speed | Heading |
|---|---|---|---|---|---|
| 2026-04-22 22:33 | 18.31202 | -65.02522 | 8387 ft | 281 kts | 275° |
| 2026-04-22 22:33 | 18.31285 | -65.04608 | 8825 ft | 284 kts | 271° |
| 2026-04-22 22:33 | 18.31250 | -65.06662 | 9257 ft | 286 kts | 268° |
| 2026-04-22 22:33 | 18.31127 | -65.08755 | 9680 ft | 288 kts | 266° |
| 2026-04-22 22:34 | 18.30938 | -65.10865 | 10091 ft | 290 kts | 265° |
| 2026-04-22 22:34 | 18.30705 | -65.12950 | 10492 ft | 291 kts | 264° |
| 2026-04-22 22:34 | 18.30432 | -65.15076 | 10921 ft | 292 kts | 263° |
| 2026-04-22 22:34 | 18.30136 | -65.17181 | 11343 ft | 292 kts | 262° |
| 2026-04-22 22:35 | 18.29819 | -65.19297 | 11760 ft | 293 kts | 262° |
| 2026-04-22 22:35 | 18.29489 | -65.21411 | 12164 ft | 293 kts | 262° |
| 2026-04-22 22:35 | 18.29235 | -65.23524 | 12538 ft | 293 kts | 270° |
| 2026-04-22 22:35 | 18.29538 | -65.25635 | 12926 ft | 292 kts | 283° |
| 2026-04-22 22:36 | 18.29990 | -65.27705 | 13270 ft | 293 kts | 283° |
| 2026-04-22 22:36 | 18.30447 | -65.29811 | 13641 ft | 293 kts | 283° |
| 2026-04-22 22:36 | 18.30894 | -65.31887 | 13976 ft | 294 kts | 283° |
| 2026-04-22 22:36 | 18.31344 | -65.34002 | 14307 ft | 294 kts | 283° |
| 2026-04-22 22:37 | 18.31787 | -65.36099 | 14627 ft | 295 kts | 283° |
| 2026-04-22 22:37 | 18.32225 | -65.38184 | 14933 ft | 296 kts | 283° |
| 2026-04-22 22:37 | 18.32668 | -65.40308 | 15242 ft | 296 kts | 283° |
| 2026-04-22 22:37 | 18.33108 | -65.42427 | 15543 ft | 296 kts | 283° |
| 2026-04-22 22:38 | 18.33545 | -65.44527 | 15832 ft | 297 kts | 283° |
| 2026-04-22 22:38 | 18.33986 | -65.46659 | 16119 ft | 297 kts | 282° |
| 2026-04-22 22:38 | 18.34424 | -65.48782 | 16391 ft | 297 kts | 282° |
| 2026-04-22 22:38 | 18.34860 | -65.50895 | 16650 ft | 298 kts | 282° |
| 2026-04-22 22:39 | 18.35302 | -65.53036 | 16909 ft | 298 kts | 282° |
| 2026-04-22 22:39 | 18.35742 | -65.55170 | 17154 ft | 299 kts | 282° |
| 2026-04-22 22:39 | 18.36178 | -65.57296 | 17387 ft | 299 kts | 282° |
| 2026-04-22 22:39 | 18.36618 | -65.59440 | 17618 ft | 299 kts | 282° |
| 2026-04-22 22:40 | 18.37055 | -65.61571 | 17842 ft | 300 kts | 282° |
| 2026-04-22 22:40 | 18.37496 | -65.63724 | 18060 ft | 300 kts | 282° |
| 2026-04-22 22:40 | 18.37933 | -65.65859 | 18265 ft | 300 kts | 282° |
| 2026-04-22 22:40 | 18.38373 | -65.68011 | 18468 ft | 301 kts | 282° |
| 2026-04-22 22:41 | 18.38816 | -65.70177 | 18671 ft | 301 kts | 282° |
| 2026-04-22 22:41 | 18.39256 | -65.72328 | 18866 ft | 301 kts | 282° |
| 2026-04-22 22:41 | 18.39695 | -65.74477 | 19053 ft | 301 kts | 282° |
| 2026-04-22 22:41 | 18.40132 | -65.76620 | 19238 ft | 302 kts | 282° |
| 2026-04-22 22:42 | 18.40574 | -65.78779 | 19481 ft | 299 kts | 282° |
| 2026-04-22 22:42 | 18.41013 | -65.80894 | 19774 ft | 295 kts | 282° |
| 2026-04-22 22:42 | 18.41463 | -65.82993 | 19961 ft | 295 kts | 282° |
| 2026-04-22 22:42 | 18.41882 | -65.85115 | 20015 ft | 298 kts | 279° |
| 2026-04-22 22:43 | 18.42144 | -65.87289 | 20047 ft | 301 kts | 274° |
| 2026-04-22 22:43 | 18.42086 | -65.89507 | 20139 ft | 301 kts | 264° |
| 2026-04-22 22:43 | 18.41557 | -65.91614 | 20188 ft | 304 kts | 251° |
| 2026-04-22 22:43 | 18.41284 | -65.93825 | 20115 ft | 305 kts | 278° |
| 2026-04-22 22:44 | 18.42040 | -65.95915 | 20128 ft | 308 kts | 295° |
| 2026-04-22 22:44 | 18.42963 | -65.97952 | 20109 ft | 310 kts | 292° |
| 2026-04-22 22:44 | 18.43672 | -66.00097 | 20094 ft | 310 kts | 283° |
| 2026-04-22 22:44 | 18.44075 | -66.02315 | 20091 ft | 311 kts | 279° |
| 2026-04-22 22:45 | 18.44387 | -66.04549 | 20091 ft | 312 kts | 277° |
| 2026-04-22 22:45 | 18.44647 | -66.06822 | 20092 ft | 312 kts | 276° |
| 2026-04-22 22:45 | 18.44868 | -66.09095 | 20095 ft | 313 kts | 275° |
| 2026-04-22 22:45 | 18.45060 | -66.11372 | 20097 ft | 313 kts | 275° |
| 2026-04-22 22:46 | 18.45232 | -66.13676 | 20098 ft | 314 kts | 274° |
| 2026-04-22 22:46 | 18.45387 | -66.15953 | 20100 ft | 314 kts | 274° |
| 2026-04-22 22:46 | 18.45531 | -66.18246 | 20100 ft | 314 kts | 274° |
| 2026-04-22 22:46 | 18.45666 | -66.20534 | 20101 ft | 314 kts | 274° |
| 2026-04-22 22:47 | 18.45796 | -66.22827 | 20101 ft | 315 kts | 274° |
| 2026-04-22 22:47 | 18.45921 | -66.25145 | 20102 ft | 315 kts | 274° |
| 2026-04-22 22:47 | 18.46042 | -66.27440 | 20103 ft | 315 kts | 273° |
| 2026-04-22 22:47 | 18.46160 | -66.29717 | 20103 ft | 315 kts | 273° |
| 2026-04-22 22:48 | 18.46278 | -66.32038 | 20102 ft | 315 kts | 273° |
| 2026-04-22 22:48 | 18.46393 | -66.34335 | 20100 ft | 315 kts | 273° |
| 2026-04-22 22:48 | 18.46506 | -66.36639 | 20099 ft | 315 kts | 273° |
| 2026-04-22 22:48 | 18.46617 | -66.38922 | 20098 ft | 315 kts | 273° |
| 2026-04-22 22:49 | 18.46729 | -66.41247 | 20097 ft | 315 kts | 273° |
| 2026-04-22 22:49 | 18.46840 | -66.43538 | 20096 ft | 315 kts | 273° |
| 2026-04-22 22:49 | 18.46950 | -66.45837 | 20095 ft | 315 kts | 273° |
| 2026-04-22 22:49 | 18.47059 | -66.48146 | 20094 ft | 315 kts | 273° |
| 2026-04-22 22:50 | 18.47168 | -66.50431 | 20093 ft | 315 kts | 273° |
| 2026-04-22 22:50 | 18.47278 | -66.52745 | 20092 ft | 315 kts | 273° |
| 2026-04-22 22:50 | 18.47386 | -66.55035 | 20092 ft | 315 kts | 273° |
| 2026-04-22 22:50 | 18.47494 | -66.57330 | 20092 ft | 315 kts | 273° |
| 2026-04-22 22:51 | 18.47604 | -66.59643 | 20091 ft | 315 kts | 273° |
| 2026-04-22 22:51 | 18.47710 | -66.61952 | 20091 ft | 315 kts | 273° |
| 2026-04-22 22:51 | 18.47810 | -66.64246 | 20091 ft | 315 kts | 273° |
| 2026-04-22 22:51 | 18.47909 | -66.66551 | 20092 ft | 315 kts | 273° |
| 2026-04-22 22:52 | 18.48008 | -66.68837 | 20092 ft | 315 kts | 273° |
| 2026-04-22 22:52 | 18.48108 | -66.71153 | 20091 ft | 315 kts | 273° |
| 2026-04-22 22:52 | 18.48207 | -66.73447 | 20089 ft | 316 kts | 273° |
| 2026-04-22 22:52 | 18.48307 | -66.75766 | 20087 ft | 316 kts | 273° |
| 2026-04-22 22:53 | 18.48406 | -66.78072 | 20086 ft | 316 kts | 273° |
| 2026-04-22 22:53 | 18.48504 | -66.80372 | 20084 ft | 316 kts | 273° |
| 2026-04-22 22:53 | 18.48602 | -66.82681 | 20084 ft | 317 kts | 273° |
| 2026-04-22 22:53 | 18.48699 | -66.84994 | 20084 ft | 317 kts | 273° |
| 2026-04-22 22:54 | 18.48804 | -66.87321 | 20085 ft | 317 kts | 273° |
| 2026-04-22 22:54 | 18.48911 | -66.89619 | 20087 ft | 317 kts | 273° |
| 2026-04-22 22:54 | 18.49019 | -66.91955 | 20087 ft | 317 kts | 273° |
| 2026-04-22 22:54 | 18.49126 | -66.94278 | 20088 ft | 317 kts | 273° |
| 2026-04-22 22:55 | 18.49231 | -66.96573 | 20088 ft | 317 kts | 273° |
| 2026-04-22 22:55 | 18.49337 | -66.98882 | 20089 ft | 317 kts | 273° |
| 2026-04-22 22:55 | 18.49548 | -67.03512 | 20089 ft | 316 kts | 273° |
| 2026-04-22 22:56 | 18.49653 | -67.05844 | 20089 ft | 316 kts | 273° |
| 2026-04-22 22:56 | 18.49779 | -67.08155 | 20079 ft | 317 kts | 273° |
| 2026-04-22 22:56 | 18.49879 | -67.10446 | 20088 ft | 316 kts | 273° |
| 2026-04-22 22:56 | 18.49925 | -67.12781 | 20091 ft | 316 kts | 270° |
| 2026-04-22 22:57 | 18.49869 | -67.15086 | 20091 ft | 316 kts | 269° |
| 2026-04-22 22:57 | 18.49806 | -67.17393 | 20090 ft | 316 kts | 269° |
| 2026-04-22 22:57 | 18.49747 | -67.19698 | 20090 ft | 316 kts | 269° |
| 2026-04-22 22:57 | 18.49690 | -67.22020 | 20090 ft | 316 kts | 269° |
| 2026-04-22 22:58 | 18.49636 | -67.24314 | 20090 ft | 316 kts | 269° |
| 2026-04-22 22:58 | 18.49584 | -67.26636 | 20090 ft | 316 kts | 270° |
| 2026-04-22 22:58 | 18.49534 | -67.28938 | 20089 ft | 316 kts | 270° |
| 2026-04-22 22:58 | 18.49484 | -67.31263 | 20089 ft | 316 kts | 270° |
| 2026-04-22 22:59 | 18.49436 | -67.33540 | 20089 ft | 316 kts | 270° |
| 2026-04-22 22:59 | 18.49387 | -67.35861 | 20090 ft | 316 kts | 270° |
| 2026-04-22 22:59 | 18.49339 | -67.38174 | 20093 ft | 316 kts | 270° |
| 2026-04-22 22:59 | 18.49291 | -67.40478 | 20094 ft | 316 kts | 270° |
| 2026-04-22 23:00 | 18.49246 | -67.42789 | 20093 ft | 316 kts | 270° |
| 2026-04-22 23:00 | 18.49194 | -67.45094 | 20093 ft | 316 kts | 269° |
| 2026-04-22 23:00 | 18.49145 | -67.47403 | 20090 ft | 317 kts | 270° |
| 2026-04-22 23:00 | 18.49094 | -67.49722 | 20089 ft | 317 kts | 270° |
| 2026-04-22 23:01 | 18.49044 | -67.52063 | 20089 ft | 318 kts | 270° |
| 2026-04-22 23:01 | 18.48994 | -67.54379 | 20088 ft | 318 kts | 270° |
| 2026-04-22 23:01 | 18.48944 | -67.56718 | 20085 ft | 318 kts | 270° |
| 2026-04-22 23:01 | 18.48894 | -67.59037 | 20084 ft | 318 kts | 270° |
| 2026-04-22 23:02 | 18.48844 | -67.61365 | 20083 ft | 318 kts | 270° |
| 2026-04-22 23:02 | 18.48793 | -67.63658 | 20083 ft | 318 kts | 270° |
| 2026-04-22 23:02 | 18.48742 | -67.65986 | 20088 ft | 317 kts | 269° |
| 2026-04-22 23:02 | 18.48691 | -67.68304 | 20087 ft | 317 kts | 269° |
| 2026-04-22 23:03 | 18.48639 | -67.70624 | 20086 ft | 317 kts | 269° |
| 2026-04-22 23:03 | 18.48588 | -67.72942 | 20087 ft | 317 kts | 269° |
| 2026-04-22 23:03 | 18.48535 | -67.75284 | 20086 ft | 317 kts | 269° |
| 2026-04-22 23:03 | 18.48482 | -67.77611 | 20086 ft | 317 kts | 269° |
| 2026-04-22 23:04 | 18.48430 | -67.79908 | 20086 ft | 317 kts | 269° |
| 2026-04-22 23:04 | 18.48377 | -67.82237 | 20086 ft | 317 kts | 269° |
| 2026-04-22 23:04 | 18.48324 | -67.84562 | 20086 ft | 317 kts | 269° |
| 2026-04-22 23:04 | 18.48270 | -67.86868 | 20088 ft | 317 kts | 269° |
| 2026-04-22 23:05 | 18.48217 | -67.89172 | 20089 ft | 317 kts | 269° |
| 2026-04-22 23:05 | 18.48163 | -67.91506 | 20091 ft | 317 kts | 269° |
| 2026-04-22 23:05 | 18.48109 | -67.93811 | 20092 ft | 317 kts | 269° |
| 2026-04-22 23:05 | 18.48054 | -67.96134 | 20093 ft | 317 kts | 269° |
| 2026-04-22 23:06 | 18.47999 | -67.98460 | 20093 ft | 317 kts | 269° |
| 2026-04-22 23:06 | 18.47945 | -68.00755 | 20093 ft | 317 kts | 269° |
| 2026-04-22 23:06 | 18.47891 | -68.03082 | 20092 ft | 317 kts | 269° |
| 2026-04-22 23:06 | 18.47838 | -68.05413 | 20092 ft | 317 kts | 269° |
| 2026-04-22 23:07 | 18.47785 | -68.07700 | 20092 ft | 317 kts | 269° |
| 2026-04-22 23:07 | 18.47731 | -68.10045 | 20092 ft | 317 kts | 269° |
| 2026-04-22 23:07 | 18.47678 | -68.12350 | 20092 ft | 317 kts | 269° |
| 2026-04-22 23:07 | 18.47624 | -68.14690 | 20092 ft | 317 kts | 269° |
| 2026-04-22 23:08 | 18.47570 | -68.16981 | 20092 ft | 318 kts | 269° |
| 2026-04-22 23:08 | 18.47515 | -68.19315 | 20092 ft | 318 kts | 269° |
| 2026-04-22 23:08 | 18.47460 | -68.21632 | 20092 ft | 318 kts | 269° |
| 2026-04-22 23:08 | 18.47405 | -68.23950 | 20092 ft | 318 kts | 269° |
| 2026-04-22 23:09 | 18.47349 | -68.26289 | 20091 ft | 318 kts | 269° |
| 2026-04-22 23:09 | 18.47293 | -68.28590 | 20091 ft | 317 kts | 269° |
| 2026-04-22 23:09 | 18.47236 | -68.30937 | 20091 ft | 317 kts | 269° |
| 2026-04-22 23:09 | 18.47180 | -68.33231 | 20092 ft | 317 kts | 269° |
| 2026-04-22 23:10 | 18.47123 | -68.35568 | 20092 ft | 317 kts | 269° |
| 2026-04-22 23:10 | 18.47066 | -68.37881 | 20093 ft | 317 kts | 269° |
| 2026-04-22 23:10 | 18.47009 | -68.40196 | 20093 ft | 317 kts | 269° |
| 2026-04-22 23:10 | 18.46952 | -68.42508 | 20094 ft | 317 kts | 269° |
| 2026-04-22 23:11 | 18.46894 | -68.44825 | 20094 ft | 317 kts | 269° |
| 2026-04-22 23:11 | 18.46835 | -68.47165 | 20094 ft | 317 kts | 269° |
| 2026-04-22 23:11 | 18.46779 | -68.49468 | 20095 ft | 317 kts | 270° |
| 2026-04-22 23:11 | 18.46720 | -68.51794 | 20095 ft | 317 kts | 269° |
| 2026-04-22 23:12 | 18.46661 | -68.54099 | 20096 ft | 317 kts | 269° |
| 2026-04-22 23:12 | 18.46601 | -68.56409 | 20096 ft | 317 kts | 269° |
| 2026-04-22 23:12 | 18.46541 | -68.58720 | 20096 ft | 317 kts | 269° |
| 2026-04-22 23:12 | 18.46481 | -68.61059 | 20097 ft | 317 kts | 269° |
| 2026-04-22 23:13 | 18.46421 | -68.63374 | 20097 ft | 317 kts | 269° |
| 2026-04-22 23:13 | 18.46360 | -68.65700 | 20099 ft | 317 kts | 269° |
| 2026-04-22 23:13 | 18.46300 | -68.68005 | 20099 ft | 318 kts | 269° |
| 2026-04-22 23:13 | 18.46239 | -68.70342 | 20100 ft | 318 kts | 269° |
| 2026-04-22 23:14 | 18.46177 | -68.72669 | 20100 ft | 319 kts | 269° |
| 2026-04-22 23:14 | 18.46116 | -68.74988 | 20101 ft | 319 kts | 269° |
| 2026-04-22 23:14 | 18.46053 | -68.77320 | 20101 ft | 319 kts | 269° |
| 2026-04-22 23:14 | 18.45991 | -68.79652 | 20102 ft | 319 kts | 269° |
| 2026-04-22 23:15 | 18.45928 | -68.81992 | 20101 ft | 320 kts | 269° |
| 2026-04-22 23:15 | 18.45865 | -68.84332 | 20101 ft | 320 kts | 269° |
| 2026-04-22 23:15 | 18.45802 | -68.86652 | 20102 ft | 320 kts | 269° |
| 2026-04-22 23:15 | 18.45737 | -68.89020 | 20102 ft | 321 kts | 269° |
| 2026-04-22 23:16 | 18.45673 | -68.91351 | 20102 ft | 321 kts | 269° |
| 2026-04-22 23:16 | 18.45608 | -68.93693 | 20102 ft | 321 kts | 269° |
| 2026-04-22 23:16 | 18.45544 | -68.96031 | 20100 ft | 321 kts | 269° |
| 2026-04-22 23:16 | 18.45478 | -68.98388 | 20099 ft | 322 kts | 269° |
| 2026-04-22 23:17 | 18.45413 | -69.00734 | 20099 ft | 322 kts | 269° |
| 2026-04-22 23:17 | 18.45347 | -69.03085 | 20099 ft | 322 kts | 269° |
| 2026-04-22 23:17 | 18.45281 | -69.05447 | 20099 ft | 322 kts | 269° |
| 2026-04-22 23:17 | 18.45214 | -69.07790 | 20099 ft | 322 kts | 269° |
| 2026-04-22 23:18 | 18.45147 | -69.10155 | 20098 ft | 322 kts | 269° |
| 2026-04-22 23:18 | 18.45080 | -69.12535 | 20098 ft | 322 kts | 269° |
| 2026-04-22 23:18 | 18.45013 | -69.14876 | 20097 ft | 323 kts | 269° |
| 2026-04-22 23:18 | 18.44946 | -69.17221 | 20098 ft | 323 kts | 269° |
| 2026-04-22 23:19 | 18.44877 | -69.19609 | 20097 ft | 323 kts | 269° |
| 2026-04-22 23:19 | 18.44809 | -69.21957 | 20096 ft | 323 kts | 269° |
| 2026-04-22 23:19 | 18.44740 | -69.24315 | 20093 ft | 323 kts | 269° |
| 2026-04-22 23:19 | 18.44671 | -69.26693 | 20092 ft | 323 kts | 269° |
| 2026-04-22 23:20 | 18.44602 | -69.29041 | 20091 ft | 323 kts | 269° |
| 2026-04-22 23:20 | 18.44532 | -69.31395 | 20091 ft | 323 kts | 269° |
| 2026-04-22 23:20 | 18.44462 | -69.33758 | 20092 ft | 322 kts | 269° |
| 2026-04-22 23:20 | 18.44393 | -69.36088 | 20093 ft | 322 kts | 269° |
| 2026-04-22 23:21 | 18.44322 | -69.38462 | 20092 ft | 322 kts | 269° |
| 2026-04-22 23:21 | 18.44252 | -69.40792 | 20092 ft | 321 kts | 269° |
| 2026-04-22 23:21 | 18.44180 | -69.43160 | 20092 ft | 321 kts | 269° |
| 2026-04-22 23:21 | 18.44110 | -69.45478 | 20091 ft | 321 kts | 269° |
| 2026-04-22 23:22 | 18.44038 | -69.47855 | 20091 ft | 321 kts | 269° |
| 2026-04-22 23:22 | 18.43967 | -69.50188 | 20091 ft | 321 kts | 269° |
| 2026-04-22 23:22 | 18.43895 | -69.52534 | 20091 ft | 321 kts | 269° |
| 2026-04-22 23:22 | 18.43822 | -69.54878 | 20091 ft | 320 kts | 269° |
| 2026-04-22 23:23 | 18.43751 | -69.57198 | 20091 ft | 320 kts | 269° |
| 2026-04-22 23:23 | 18.43678 | -69.59535 | 20091 ft | 320 kts | 269° |
| 2026-04-22 23:23 | 18.43605 | -69.61890 | 20093 ft | 320 kts | 269° |
| 2026-04-22 23:23 | 18.43532 | -69.64239 | 20094 ft | 320 kts | 269° |
| 2026-04-22 23:24 | 18.43459 | -69.66563 | 20097 ft | 320 kts | 269° |
| 2026-04-22 23:24 | 18.43423 | -69.68906 | 20096 ft | 320 kts | 271° |
| 2026-04-22 23:24 | 18.43441 | -69.71244 | 20095 ft | 321 kts | 271° |
| 2026-04-22 23:24 | 18.43462 | -69.73605 | 20094 ft | 321 kts | 271° |
| 2026-04-22 23:25 | 18.43480 | -69.75942 | 20094 ft | 321 kts | 271° |
| 2026-04-22 23:25 | 18.43496 | -69.78298 | 20094 ft | 321 kts | 271° |
| 2026-04-22 23:25 | 18.43511 | -69.80652 | 20094 ft | 321 kts | 271° |
| 2026-04-22 23:25 | 18.43524 | -69.82982 | 20095 ft | 322 kts | 271° |
| 2026-04-22 23:26 | 18.43536 | -69.85361 | 20094 ft | 322 kts | 271° |
| 2026-04-22 23:26 | 18.43548 | -69.87698 | 20094 ft | 322 kts | 271° |
| 2026-04-22 23:26 | 18.43559 | -69.90069 | 20094 ft | 322 kts | 271° |
| 2026-04-22 23:26 | 18.43568 | -69.92410 | 20094 ft | 322 kts | 271° |
| 2026-04-22 23:27 | 18.43578 | -69.94752 | 20094 ft | 322 kts | 271° |
| 2026-04-22 23:27 | 18.43592 | -69.97105 | 20093 ft | 321 kts | 272° |
| 2026-04-22 23:27 | 18.43735 | -69.99448 | 20095 ft | 321 kts | 275° |
| 2026-04-22 23:27 | 18.43944 | -70.01798 | 20093 ft | 321 kts | 276° |
| 2026-04-22 23:28 | 18.44154 | -70.04136 | 20095 ft | 321 kts | 276° |
| 2026-04-22 23:28 | 18.44361 | -70.06456 | 20098 ft | 320 kts | 276° |
| 2026-04-22 23:28 | 18.44568 | -70.08793 | 20103 ft | 320 kts | 276° |
| 2026-04-22 23:28 | 18.44771 | -70.11101 | 20108 ft | 320 kts | 276° |
| 2026-04-22 23:29 | 18.44977 | -70.13448 | 20114 ft | 319 kts | 276° |
| 2026-04-22 23:29 | 18.45178 | -70.15787 | 20118 ft | 319 kts | 275° |
| 2026-04-22 23:29 | 18.45302 | -70.18096 | 20125 ft | 319 kts | 273° |
| 2026-04-22 23:29 | 18.45390 | -70.20436 | 20131 ft | 319 kts | 273° |
| 2026-04-22 23:30 | 18.45478 | -70.22751 | 20137 ft | 319 kts | 273° |
| 2026-04-22 23:30 | 18.45570 | -70.25095 | 20143 ft | 319 kts | 273° |
| 2026-04-22 23:30 | 18.45662 | -70.27415 | 20148 ft | 319 kts | 273° |
| 2026-04-22 23:30 | 18.45757 | -70.29762 | 20149 ft | 319 kts | 273° |
| 2026-04-22 23:31 | 18.45852 | -70.32112 | 20150 ft | 319 kts | 273° |
| 2026-04-22 23:31 | 18.45945 | -70.34426 | 20149 ft | 319 kts | 273° |
| 2026-04-22 23:31 | 18.46042 | -70.36782 | 20148 ft | 320 kts | 273° |
| 2026-04-22 23:31 | 18.46137 | -70.39098 | 20147 ft | 319 kts | 273° |
| 2026-04-22 23:32 | 18.46232 | -70.41414 | 20148 ft | 319 kts | 273° |
| 2026-04-22 23:32 | 18.46327 | -70.43774 | 20149 ft | 318 kts | 273° |
| 2026-04-22 23:32 | 18.46422 | -70.46066 | 20151 ft | 317 kts | 273° |
| 2026-04-22 23:32 | 18.46516 | -70.48395 | 20152 ft | 317 kts | 273° |
| 2026-04-22 23:33 | 18.46610 | -70.50697 | 20153 ft | 317 kts | 273° |
| 2026-04-22 23:33 | 18.46705 | -70.53040 | 20152 ft | 317 kts | 273° |
| 2026-04-22 23:33 | 18.46798 | -70.55341 | 20147 ft | 318 kts | 273° |
| 2026-04-22 23:33 | 18.46892 | -70.57674 | 20143 ft | 319 kts | 273° |
| 2026-04-22 23:34 | 18.46984 | -70.59982 | 20139 ft | 319 kts | 273° |
| 2026-04-22 23:34 | 18.47077 | -70.62312 | 20134 ft | 319 kts | 273° |
| 2026-04-22 23:34 | 18.47171 | -70.64668 | 20130 ft | 319 kts | 273° |
| 2026-04-22 23:34 | 18.47264 | -70.67004 | 20127 ft | 320 kts | 273° |
| 2026-04-22 23:35 | 18.47357 | -70.69342 | 20123 ft | 320 kts | 273° |
| 2026-04-22 23:35 | 18.47450 | -70.71690 | 20118 ft | 321 kts | 273° |
| 2026-04-22 23:35 | 18.47542 | -70.74016 | 20112 ft | 321 kts | 273° |
| 2026-04-22 23:35 | 18.47635 | -70.76371 | 20107 ft | 321 kts | 273° |
| 2026-04-22 23:36 | 18.47726 | -70.78697 | 20103 ft | 321 kts | 273° |
| 2026-04-22 23:36 | 18.47819 | -70.81056 | 20101 ft | 321 kts | 273° |
| 2026-04-22 23:36 | 18.47911 | -70.83407 | 20099 ft | 321 kts | 273° |
| 2026-04-22 23:36 | 18.48002 | -70.85754 | 20098 ft | 321 kts | 273° |
| 2026-04-22 23:37 | 18.48093 | -70.88097 | 20098 ft | 321 kts | 273° |
| 2026-04-22 23:37 | 18.48183 | -70.90430 | 20097 ft | 321 kts | 273° |
| 2026-04-22 23:37 | 18.48274 | -70.92796 | 20098 ft | 321 kts | 273° |
| 2026-04-22 23:37 | 18.48364 | -70.95141 | 20098 ft | 321 kts | 273° |
| 2026-04-22 23:38 | 18.48454 | -70.97498 | 20096 ft | 321 kts | 273° |
| 2026-04-22 23:38 | 18.48542 | -70.99819 | 20094 ft | 321 kts | 273° |
| 2026-04-22 23:38 | 18.48632 | -71.02177 | 20092 ft | 322 kts | 273° |
| 2026-04-22 23:38 | 18.48721 | -71.04527 | 20090 ft | 322 kts | 273° |
| 2026-04-22 23:39 | 18.48810 | -71.06889 | 20089 ft | 322 kts | 273° |
| 2026-04-22 23:39 | 18.48900 | -71.09259 | 20088 ft | 323 kts | 273° |
| 2026-04-22 23:39 | 18.48987 | -71.11591 | 20087 ft | 323 kts | 273° |
| 2026-04-22 23:39 | 18.49075 | -71.13948 | 20087 ft | 323 kts | 273° |
| 2026-04-22 23:40 | 18.49163 | -71.16305 | 20085 ft | 323 kts | 273° |
| 2026-04-22 23:40 | 18.49251 | -71.18681 | 20084 ft | 323 kts | 273° |
| 2026-04-22 23:40 | 18.49338 | -71.21030 | 20083 ft | 323 kts | 273° |
| 2026-04-22 23:40 | 18.49426 | -71.23406 | 20082 ft | 323 kts | 273° |
| 2026-04-22 23:41 | 18.49512 | -71.25754 | 20081 ft | 323 kts | 273° |
| 2026-04-22 23:41 | 18.49599 | -71.28133 | 20080 ft | 323 kts | 273° |
| 2026-04-22 23:41 | 18.49685 | -71.30498 | 20080 ft | 323 kts | 273° |
| 2026-04-22 23:41 | 18.49771 | -71.32855 | 20079 ft | 324 kts | 273° |
| 2026-04-22 23:42 | 18.49857 | -71.35223 | 20078 ft | 324 kts | 273° |
| 2026-04-22 23:42 | 18.49943 | -71.37592 | 20078 ft | 324 kts | 273° |
| 2026-04-22 23:42 | 18.50027 | -71.39949 | 20077 ft | 324 kts | 273° |
| 2026-04-22 23:42 | 18.50112 | -71.42302 | 20076 ft | 324 kts | 273° |
| 2026-04-22 23:43 | 18.50197 | -71.44674 | 20075 ft | 324 kts | 273° |
| 2026-04-22 23:43 | 18.50281 | -71.47049 | 20073 ft | 324 kts | 273° |
| 2026-04-22 23:43 | 18.50366 | -71.49432 | 20070 ft | 324 kts | 273° |
| 2026-04-22 23:43 | 18.50450 | -71.51798 | 20068 ft | 323 kts | 273° |
| 2026-04-22 23:44 | 18.50532 | -71.54132 | 20067 ft | 323 kts | 273° |
| 2026-04-22 23:44 | 18.50617 | -71.56525 | 20068 ft | 323 kts | 273° |
| 2026-04-22 23:44 | 18.50699 | -71.58884 | 20069 ft | 323 kts | 273° |
| 2026-04-22 23:44 | 18.50781 | -71.61235 | 20068 ft | 322 kts | 273° |
| 2026-04-22 23:45 | 18.50862 | -71.63576 | 20067 ft | 322 kts | 273° |
| 2026-04-22 23:45 | 18.50944 | -71.65935 | 20067 ft | 322 kts | 272° |
| 2026-04-22 23:45 | 18.51026 | -71.68311 | 20064 ft | 323 kts | 272° |
| 2026-04-22 23:45 | 18.51106 | -71.70655 | 20062 ft | 323 kts | 272° |
| 2026-04-22 23:46 | 18.51188 | -71.73031 | 20061 ft | 323 kts | 272° |
| 2026-04-22 23:46 | 18.51268 | -71.75362 | 20059 ft | 323 kts | 272° |
| 2026-04-22 23:46 | 18.51348 | -71.77725 | 20057 ft | 323 kts | 272° |
| 2026-04-22 23:46 | 18.51429 | -71.80114 | 20056 ft | 323 kts | 272° |
| 2026-04-22 23:47 | 18.51508 | -71.82442 | 20055 ft | 323 kts | 272° |
| 2026-04-22 23:47 | 18.51587 | -71.84811 | 20055 ft | 323 kts | 272° |
| 2026-04-22 23:47 | 18.51667 | -71.87193 | 20055 ft | 323 kts | 272° |
| 2026-04-22 23:47 | 18.51850 | -71.89528 | 20056 ft | 322 kts | 277° |
| 2026-04-22 23:48 | 18.52177 | -71.91843 | 20056 ft | 322 kts | 279° |
| 2026-04-22 23:48 | 18.52520 | -71.94190 | 20060 ft | 322 kts | 279° |
| 2026-04-22 23:48 | 18.52858 | -71.96504 | 20064 ft | 322 kts | 279° |
| 2026-04-22 23:48 | 18.53199 | -71.98859 | 20066 ft | 322 kts | 279° |
| 2026-04-22 23:49 | 18.53534 | -72.01188 | 20065 ft | 323 kts | 279° |
| 2026-04-22 23:49 | 18.53871 | -72.03530 | 20066 ft | 323 kts | 278° |
| 2026-04-22 23:49 | 18.54203 | -72.05840 | 20068 ft | 323 kts | 278° |
| 2026-04-22 23:49 | 18.54540 | -72.08195 | 20072 ft | 324 kts | 278° |
| 2026-04-22 23:50 | 18.54872 | -72.10525 | 20078 ft | 324 kts | 278° |
| 2026-04-22 23:50 | 18.55209 | -72.12891 | 20082 ft | 324 kts | 278° |
| 2026-04-22 23:50 | 18.55541 | -72.15229 | 20086 ft | 324 kts | 278° |
| 2026-04-22 23:50 | 18.55876 | -72.17580 | 20096 ft | 324 kts | 278° |
| 2026-04-22 23:51 | 18.56208 | -72.19923 | 20131 ft | 324 kts | 278° |
| 2026-04-22 23:51 | 18.56541 | -72.22277 | 20143 ft | 325 kts | 278° |
| 2026-04-22 23:51 | 18.56877 | -72.24649 | 20140 ft | 326 kts | 278° |
| 2026-04-22 23:51 | 18.57214 | -72.27030 | 20082 ft | 326 kts | 278° |
| 2026-04-22 23:52 | 18.57543 | -72.29362 | 20070 ft | 325 kts | 278° |
| 2026-04-22 23:52 | 18.57897 | -72.31724 | 20072 ft | 323 kts | 280° |
| 2026-04-22 23:52 | 18.58353 | -72.34017 | 20079 ft | 321 kts | 282° |
| 2026-04-22 23:52 | 18.58827 | -72.36298 | 20099 ft | 320 kts | 282° |
| 2026-04-22 23:53 | 18.59305 | -72.38609 | 20109 ft | 320 kts | 282° |
| 2026-04-22 23:53 | 18.59772 | -72.40882 | 20109 ft | 321 kts | 282° |
| 2026-04-22 23:53 | 18.60240 | -72.43179 | 20106 ft | 321 kts | 282° |
| 2026-04-22 23:53 | 18.60710 | -72.45490 | 20100 ft | 322 kts | 282° |
| 2026-04-22 23:54 | 18.61177 | -72.47801 | 20093 ft | 322 kts | 282° |
| 2026-04-22 23:54 | 18.61643 | -72.50100 | 20101 ft | 321 kts | 282° |
| 2026-04-22 23:54 | 18.62104 | -72.52388 | 20050 ft | 323 kts | 281° |
| 2026-04-22 23:54 | 18.62568 | -72.54701 | 20130 ft | 319 kts | 282° |
| 2026-04-22 23:55 | 18.63032 | -72.56973 | 20065 ft | 320 kts | 282° |
| 2026-04-22 23:55 | 18.63482 | -72.59261 | 20109 ft | 318 kts | 281° |
| 2026-04-22 23:55 | 18.63949 | -72.61557 | 20009 ft | 321 kts | 283° |
| 2026-04-22 23:55 | 18.64420 | -72.63853 | 20065 ft | 319 kts | 284° |
| 2026-04-22 23:56 | 18.64861 | -72.66143 | 20013 ft | 321 kts | 282° |
| 2026-04-22 23:56 | 18.65328 | -72.68448 | 20046 ft | 320 kts | 281° |
| 2026-04-22 23:56 | 18.65787 | -72.70747 | 19992 ft | 321 kts | 283° |
| 2026-04-22 23:56 | 18.66251 | -72.73032 | 20089 ft | 318 kts | 282° |
| 2026-04-22 23:57 | 18.66704 | -72.75312 | 19997 ft | 321 kts | 282° |
| 2026-04-22 23:57 | 18.67146 | -72.77594 | 20068 ft | 319 kts | 282° |
| 2026-04-22 23:57 | 18.67606 | -72.79892 | 20008 ft | 320 kts | 283° |
| 2026-04-22 23:57 | 18.68044 | -72.82154 | 20099 ft | 316 kts | 283° |
| 2026-04-22 23:58 | 18.68499 | -72.84480 | 19956 ft | 322 kts | 281° |
| 2026-04-22 23:58 | 18.68961 | -72.86759 | 20130 ft | 317 kts | 283° |
| 2026-04-22 23:58 | 18.69422 | -72.89042 | 20061 ft | 320 kts | 281° |
| 2026-04-22 23:58 | 18.69874 | -72.91334 | 20056 ft | 322 kts | 282° |
| 2026-04-22 23:59 | 18.70332 | -72.93652 | 20062 ft | 323 kts | 282° |
| 2026-04-22 23:59 | 18.70792 | -72.95965 | 20067 ft | 324 kts | 282° |
| 2026-04-22 23:59 | 18.71305 | -72.98272 | 20071 ft | 325 kts | 283° |
| 2026-04-22 23:59 | 18.71838 | -73.00576 | 20075 ft | 325 kts | 283° |
| 2026-04-23 00:00 | 18.72906 | -73.05218 | 20077 ft | 326 kts | 283° |
| 2026-04-23 00:00 | 18.73263 | -73.06773 | 20076 ft | 326 kts | 283° |
| 2026-04-23 00:00 | 18.73974 | -73.09877 | 20075 ft | 327 kts | 283° |
| 2026-04-23 00:01 | 18.74500 | -73.12182 | 20074 ft | 327 kts | 283° |
| 2026-04-23 00:01 | 18.75032 | -73.14516 | 20073 ft | 327 kts | 283° |
| 2026-04-23 00:01 | 18.75567 | -73.16863 | 20072 ft | 327 kts | 283° |
| 2026-04-23 00:01 | 18.76097 | -73.19192 | 20071 ft | 327 kts | 283° |
| 2026-04-23 00:02 | 18.76623 | -73.21506 | 20071 ft | 327 kts | 283° |
| 2026-04-23 00:02 | 18.77154 | -73.23849 | 20071 ft | 327 kts | 283° |
| 2026-04-23 00:02 | 18.77678 | -73.26158 | 20069 ft | 327 kts | 283° |
| 2026-04-23 00:02 | 18.78204 | -73.28481 | 20069 ft | 327 kts | 283° |
| 2026-04-23 00:03 | 18.78738 | -73.30836 | 20070 ft | 327 kts | 283° |
| 2026-04-23 00:03 | 18.79264 | -73.33160 | 20071 ft | 327 kts | 283° |
| 2026-04-23 00:03 | 18.79790 | -73.35488 | 20072 ft | 327 kts | 283° |
| 2026-04-23 00:03 | 18.80315 | -73.37811 | 20072 ft | 327 kts | 283° |
| 2026-04-23 00:04 | 18.80839 | -73.40130 | 20073 ft | 327 kts | 283° |
| 2026-04-23 00:04 | 18.81364 | -73.42454 | 20074 ft | 327 kts | 283° |
| 2026-04-23 00:04 | 18.81894 | -73.44805 | 20075 ft | 327 kts | 283° |
| 2026-04-23 00:04 | 18.82417 | -73.47123 | 20076 ft | 327 kts | 283° |
| 2026-04-23 00:05 | 18.82945 | -73.49468 | 20076 ft | 327 kts | 283° |
| 2026-04-23 00:05 | 18.83471 | -73.51800 | 20077 ft | 327 kts | 283° |
| 2026-04-23 00:05 | 18.83988 | -73.54098 | 20078 ft | 327 kts | 283° |
| 2026-04-23 00:05 | 18.84518 | -73.56455 | 20078 ft | 327 kts | 283° |
| 2026-04-23 00:06 | 18.85038 | -73.58767 | 20079 ft | 327 kts | 283° |
| 2026-04-23 00:06 | 18.85559 | -73.61089 | 20080 ft | 326 kts | 283° |
| 2026-04-23 00:06 | 18.86080 | -73.63410 | 20081 ft | 326 kts | 283° |
| 2026-04-23 00:06 | 18.86610 | -73.65771 | 20082 ft | 326 kts | 283° |
| 2026-04-23 00:07 | 18.87130 | -73.68092 | 20082 ft | 327 kts | 283° |
| 2026-04-23 00:07 | 18.87653 | -73.70426 | 20082 ft | 327 kts | 283° |
| 2026-04-23 00:07 | 18.88171 | -73.72739 | 20083 ft | 327 kts | 283° |
| 2026-04-23 00:07 | 18.88696 | -73.75085 | 20082 ft | 326 kts | 283° |
| 2026-04-23 00:08 | 18.89215 | -73.77407 | 20084 ft | 325 kts | 283° |
| 2026-04-23 00:08 | 18.89732 | -73.79717 | 20085 ft | 324 kts | 283° |
| 2026-04-23 00:08 | 18.90246 | -73.82021 | 20084 ft | 321 kts | 283° |
| 2026-04-23 00:08 | 18.90757 | -73.84312 | 20087 ft | 323 kts | 283° |
| 2026-04-23 00:09 | 18.91270 | -73.86611 | 20088 ft | 324 kts | 283° |
| 2026-04-23 00:09 | 18.91788 | -73.88934 | 20089 ft | 325 kts | 283° |
| 2026-04-23 00:09 | 18.92305 | -73.91252 | 20089 ft | 325 kts | 283° |
| 2026-04-23 00:09 | 18.92980 | -73.93515 | 20088 ft | 326 kts | 291° |
| 2026-04-23 00:10 | 18.93915 | -73.95718 | 20089 ft | 326 kts | 294° |
| 2026-04-23 00:10 | 18.94855 | -73.97881 | 20090 ft | 326 kts | 294° |
| 2026-04-23 00:10 | 18.95795 | -74.00045 | 20091 ft | 327 kts | 294° |
| 2026-04-23 00:10 | 18.96747 | -74.02245 | 20092 ft | 327 kts | 294° |
| 2026-04-23 00:11 | 18.97688 | -74.04424 | 20092 ft | 327 kts | 294° |
| 2026-04-23 00:11 | 18.98632 | -74.06615 | 20092 ft | 327 kts | 294° |
| 2026-04-23 00:11 | 18.99566 | -74.08787 | 20092 ft | 327 kts | 294° |
| 2026-04-23 00:11 | 19.00508 | -74.10979 | 20092 ft | 327 kts | 294° |
| 2026-04-23 00:12 | 19.01445 | -74.13162 | 20093 ft | 327 kts | 294° |
| 2026-04-23 00:12 | 19.02380 | -74.15344 | 20094 ft | 327 kts | 294° |
| 2026-04-23 00:12 | 19.03312 | -74.17519 | 20096 ft | 327 kts | 294° |
| 2026-04-23 00:12 | 19.04257 | -74.19727 | 20097 ft | 327 kts | 294° |
| 2026-04-23 00:13 | 19.05187 | -74.21898 | 20097 ft | 326 kts | 294° |
| 2026-04-23 00:13 | 19.06118 | -74.24076 | 20098 ft | 326 kts | 294° |
| 2026-04-23 00:13 | 19.07061 | -74.26282 | 20099 ft | 326 kts | 294° |
| 2026-04-23 00:13 | 19.07983 | -74.28441 | 20100 ft | 326 kts | 294° |
| 2026-04-23 00:14 | 19.08920 | -74.30636 | 20100 ft | 326 kts | 294° |
| 2026-04-23 00:14 | 19.09856 | -74.32828 | 20101 ft | 326 kts | 294° |
| 2026-04-23 00:14 | 19.10778 | -74.34991 | 20102 ft | 326 kts | 294° |
| 2026-04-23 00:14 | 19.11716 | -74.37191 | 20102 ft | 326 kts | 294° |
| 2026-04-23 00:15 | 19.12645 | -74.39368 | 20103 ft | 326 kts | 294° |
| 2026-04-23 00:15 | 19.13571 | -74.41543 | 20105 ft | 326 kts | 294° |
| 2026-04-23 00:15 | 19.14512 | -74.43754 | 20111 ft | 326 kts | 294° |
| 2026-04-23 00:15 | 19.15436 | -74.45922 | 20115 ft | 326 kts | 294° |
| 2026-04-23 00:16 | 19.16366 | -74.48108 | 20119 ft | 326 kts | 294° |
| 2026-04-23 00:16 | 19.17297 | -74.50297 | 20121 ft | 327 kts | 294° |
| 2026-04-23 00:16 | 19.18223 | -74.52474 | 20120 ft | 327 kts | 294° |
| 2026-04-23 00:16 | 19.19165 | -74.54690 | 20120 ft | 328 kts | 294° |
| 2026-04-23 00:17 | 19.20097 | -74.56883 | 20120 ft | 328 kts | 294° |
| 2026-04-23 00:17 | 19.21030 | -74.59079 | 20120 ft | 328 kts | 294° |
| 2026-04-23 00:17 | 19.21963 | -74.61275 | 20120 ft | 328 kts | 294° |
| 2026-04-23 00:17 | 19.22892 | -74.63464 | 20120 ft | 328 kts | 294° |
| 2026-04-23 00:18 | 19.23825 | -74.65662 | 20120 ft | 328 kts | 293° |
| 2026-04-23 00:18 | 19.24765 | -74.67877 | 20120 ft | 328 kts | 293° |
| 2026-04-23 00:18 | 19.25698 | -74.70077 | 20120 ft | 329 kts | 293° |
| 2026-04-23 00:18 | 19.26632 | -74.72283 | 20120 ft | 329 kts | 293° |
| 2026-04-23 00:19 | 19.27569 | -74.74494 | 20120 ft | 329 kts | 293° |
| 2026-04-23 00:19 | 19.28498 | -74.76689 | 20120 ft | 329 kts | 293° |
| 2026-04-23 00:19 | 19.29439 | -74.78913 | 20120 ft | 329 kts | 293° |
| 2026-04-23 00:19 | 19.30367 | -74.81107 | 20120 ft | 329 kts | 293° |
| 2026-04-23 00:20 | 19.31305 | -74.83326 | 20120 ft | 329 kts | 293° |
| 2026-04-23 00:20 | 19.32244 | -74.85547 | 20120 ft | 329 kts | 293° |
| 2026-04-23 00:20 | 19.33179 | -74.87759 | 20119 ft | 329 kts | 293° |
| 2026-04-23 00:20 | 19.34104 | -74.89950 | 20119 ft | 329 kts | 293° |
| 2026-04-23 00:21 | 19.35037 | -74.92160 | 20119 ft | 329 kts | 293° |
| 2026-04-23 00:21 | 19.35975 | -74.94381 | 20119 ft | 329 kts | 293° |
| 2026-04-23 00:21 | 19.36895 | -74.96577 | 20107 ft | 327 kts | 293° |
| 2026-04-23 00:21 | 19.37823 | -74.98762 | 20110 ft | 327 kts | 294° |
| 2026-04-23 00:22 | 19.38756 | -75.00977 | 20137 ft | 324 kts | 292° |
| 2026-04-23 00:22 | 19.39673 | -75.03145 | 20084 ft | 326 kts | 293° |
| 2026-04-23 00:22 | 19.40597 | -75.05340 | 20101 ft | 325 kts | 294° |
| 2026-04-23 00:22 | 19.41509 | -75.07510 | 20158 ft | 322 kts | 293° |
| 2026-04-23 00:23 | 19.42425 | -75.09679 | 20112 ft | 324 kts | 294° |
| 2026-04-23 00:23 | 19.43349 | -75.11855 | 20143 ft | 321 kts | 294° |
| 2026-04-23 00:23 | 19.44239 | -75.13998 | 20124 ft | 322 kts | 293° |
| 2026-04-23 00:23 | 19.45162 | -75.16191 | 20122 ft | 324 kts | 293° |
| 2026-04-23 00:24 | 19.46077 | -75.18370 | 20121 ft | 325 kts | 293° |
| 2026-04-23 00:24 | 19.46992 | -75.20552 | 20120 ft | 326 kts | 293° |
| 2026-04-23 00:24 | 19.47923 | -75.22771 | 20121 ft | 327 kts | 293° |
| 2026-04-23 00:24 | 19.48841 | -75.24958 | 20121 ft | 327 kts | 293° |
| 2026-04-23 00:25 | 19.49765 | -75.27159 | 20121 ft | 328 kts | 293° |
| 2026-04-23 00:25 | 19.50698 | -75.29385 | 20120 ft | 328 kts | 293° |
| 2026-04-23 00:25 | 19.51629 | -75.31598 | 20120 ft | 329 kts | 293° |
| 2026-04-23 00:25 | 19.52542 | -75.33778 | 20072 ft | 321 kts | 293° |
| 2026-04-23 00:26 | 19.53449 | -75.35930 | 19823 ft | 314 kts | 293° |
| 2026-04-23 00:26 | 19.54320 | -75.38007 | 19505 ft | 310 kts | 292° |
| 2026-04-23 00:26 | 19.55173 | -75.40082 | 19159 ft | 307 kts | 292° |
| 2026-04-23 00:26 | 19.56023 | -75.42140 | 18811 ft | 305 kts | 293° |
| 2026-04-23 00:27 | 19.56882 | -75.44200 | 18459 ft | 303 kts | 293° |
| 2026-04-23 00:27 | 19.57736 | -75.46239 | 18105 ft | 301 kts | 293° |
| 2026-04-23 00:27 | 19.58576 | -75.48254 | 17751 ft | 298 kts | 293° |
| 2026-04-23 00:27 | 19.59416 | -75.50262 | 17405 ft | 296 kts | 293° |
| 2026-04-23 00:28 | 19.60245 | -75.52248 | 17066 ft | 295 kts | 293° |
| 2026-04-23 00:28 | 19.61070 | -75.54225 | 16729 ft | 293 kts | 293° |
| 2026-04-23 00:28 | 19.61894 | -75.56198 | 16382 ft | 292 kts | 293° |
| 2026-04-23 00:28 | 19.62716 | -75.58171 | 16042 ft | 291 kts | 293° |
| 2026-04-23 00:29 | 19.63521 | -75.60103 | 15712 ft | 290 kts | 293° |
| 2026-04-23 00:29 | 19.64345 | -75.62077 | 15375 ft | 289 kts | 293° |
| 2026-04-23 00:29 | 19.65148 | -75.64005 | 15046 ft | 288 kts | 293° |
| 2026-04-23 00:29 | 19.65953 | -75.65939 | 14717 ft | 288 kts | 293° |
| 2026-04-23 00:30 | 19.66769 | -75.67899 | 14382 ft | 287 kts | 293° |
| 2026-04-23 00:30 | 19.67550 | -75.69778 | 14050 ft | 274 kts | 293° |
| 2026-04-23 00:30 | 19.68305 | -75.71601 | 13737 ft | 261 kts | 293° |
| 2026-04-23 00:30 | 19.69011 | -75.73305 | 13421 ft | 250 kts | 293° |
| 2026-04-23 00:31 | 19.69885 | -75.74892 | 12779 ft | 255 kts | 311° |
| 2026-04-23 00:31 | 19.71357 | -75.75924 | 12252 ft | 254 kts | 336° |
| 2026-04-23 00:31 | 19.73033 | -75.76509 | 11744 ft | 254 kts | 341° |
| 2026-04-23 00:31 | 19.74715 | -75.77058 | 11266 ft | 251 kts | 341° |
| 2026-04-23 00:32 | 19.76384 | -75.77605 | 10736 ft | 250 kts | 341° |
| 2026-04-23 00:32 | 19.78012 | -75.78142 | 10320 ft | 244 kts | 341° |
| 2026-04-23 00:32 | 19.79618 | -75.78681 | 9936 ft | 237 kts | 341° |
| 2026-04-23 00:32 | 19.81177 | -75.79214 | 9557 ft | 231 kts | 341° |
| 2026-04-23 00:33 | 19.82680 | -75.79739 | 9185 ft | 226 kts | 341° |
| 2026-04-23 00:33 | 19.84173 | -75.80272 | 8806 ft | 221 kts | 341° |
| 2026-04-23 00:33 | 19.85630 | -75.80804 | 8444 ft | 223 kts | 341° |
| 2026-04-23 00:33 | 19.87090 | -75.81351 | 8081 ft | 223 kts | 341° |
| 2026-04-23 00:34 | 19.88569 | -75.81871 | 7712 ft | 222 kts | 349° |
| 2026-04-23 00:34 | 19.90108 | -75.82102 | 7348 ft | 221 kts | 355° |
| 2026-04-23 00:34 | 19.91636 | -75.82301 | 6989 ft | 221 kts | 355° |
| 2026-04-23 00:34 | 19.93132 | -75.82504 | 6628 ft | 216 kts | 355° |
| 2026-04-23 00:35 | 19.94622 | -75.82716 | 6300 ft | 211 kts | 355° |
| 2026-04-23 00:35 | 19.96049 | -75.82925 | 5943 ft | 208 kts | 355° |
| 2026-04-23 00:35 | 19.97491 | -75.83144 | 5575 ft | 206 kts | 355° |
| 2026-04-23 00:35 | 19.98908 | -75.83366 | 5242 ft | 202 kts | 355° |
| 2026-04-23 00:36 | 20.00262 | -75.83584 | 5102 ft | 194 kts | 355° |
| 2026-04-23 00:36 | 20.01580 | -75.83802 | 5047 ft | 190 kts | 355° |
| 2026-04-23 00:36 | 20.02898 | -75.84024 | 5022 ft | 187 kts | 355° |
| 2026-04-23 00:36 | 20.04186 | -75.84242 | 5014 ft | 186 kts | 355° |
| 2026-04-23 00:37 | 20.05468 | -75.84456 | 5014 ft | 190 kts | 355° |
| 2026-04-23 00:37 | 20.06736 | -75.84922 | 5009 ft | 198 kts | 330° |
| 2026-04-23 00:37 | 20.07851 | -75.85838 | 5016 ft | 203 kts | 326° |
| 2026-04-23 00:37 | 20.08970 | -75.86758 | 5016 ft | 206 kts | 326° |
| 2026-04-23 00:38 | 20.10110 | -75.87689 | 5011 ft | 205 kts | 329° |
| 2026-04-23 00:38 | 20.11397 | -75.88250 | 5013 ft | 196 kts | 352° |
| 2026-04-23 00:38 | 20.12754 | -75.88565 | 4880 ft | 201 kts | 351° |
| 2026-04-23 00:38 | 20.14138 | -75.88901 | 4648 ft | 203 kts | 351° |
| 2026-04-23 00:39 | 20.15524 | -75.89233 | 4412 ft | 205 kts | 351° |
| 2026-04-23 00:39 | 20.16907 | -75.89629 | 4165 ft | 210 kts | 340° |
| 2026-04-23 00:39 | 20.18031 | -75.90636 | 3915 ft | 219 kts | 308° |
| 2026-04-23 00:39 | 20.18504 | -75.92184 | 3676 ft | 225 kts | 275° |
| 2026-04-23 00:40 | 20.18413 | -75.93848 | 3455 ft | 226 kts | 267° |
| 2026-04-23 00:40 | 20.18289 | -75.95534 | 3219 ft | 227 kts | 268° |
| 2026-04-23 00:40 | 20.18160 | -75.97208 | 2991 ft | 228 kts | 267° |
| 2026-04-23 00:40 | 20.18031 | -75.98863 | 2972 ft | 217 kts | 267° |
| 2026-04-23 00:41 | 20.17906 | -76.00425 | 2986 ft | 206 kts | 267° |
| 2026-04-23 00:41 | 20.17785 | -76.01910 | 2993 ft | 196 kts | 267° |
| 2026-04-23 00:41 | 20.17668 | -76.03352 | 3007 ft | 199 kts | 268° |
| 2026-04-23 00:41 | 20.17552 | -76.04830 | 3009 ft | 204 kts | 267° |
| 2026-04-23 00:42 | 20.17431 | -76.06329 | 3004 ft | 201 kts | 267° |
| 2026-04-23 00:42 | 20.17311 | -76.07808 | 3004 ft | 199 kts | 267° |
| 2026-04-23 00:42 | 20.17155 | -76.09248 | 2997 ft | 196 kts | 258° |
| 2026-04-23 00:42 | 20.16689 | -76.10619 | 3003 ft | 193 kts | 250° |
| 2026-04-23 00:43 | 20.16212 | -76.11942 | 3000 ft | 190 kts | 250° |
| 2026-04-23 00:43 | 20.15741 | -76.13246 | 3000 ft | 187 kts | 250° |
| 2026-04-23 00:43 | 20.15279 | -76.14525 | 3000 ft | 183 kts | 251° |
| 2026-04-23 00:43 | 20.14827 | -76.15771 | 2998 ft | 179 kts | 250° |
| 2026-04-23 00:44 | 20.14381 | -76.17003 | 2997 ft | 176 kts | 250° |
| 2026-04-23 00:44 | 20.13726 | -76.18079 | 3013 ft | 176 kts | 218° |
| 2026-04-23 00:44 | 20.12586 | -76.18506 | 3024 ft | 176 kts | 180° |
| 2026-04-23 00:44 | 20.11333 | -76.18539 | 3042 ft | 181 kts | 178° |
| 2026-04-23 00:45 | 20.10050 | -76.18590 | 3347 ft | 184 kts | 179° |
| 2026-04-23 00:45 | 20.08776 | -76.18634 | 3680 ft | 183 kts | 178° |
| 2026-04-23 00:45 | 20.07388 | -76.18684 | 3879 ft | 205 kts | 179° |
| 2026-04-23 00:45 | 20.05957 | -76.18727 | 3950 ft | 206 kts | 178° |
| 2026-04-23 00:46 | 20.04533 | -76.18767 | 3974 ft | 198 kts | 178° |
| 2026-04-23 00:46 | 20.03235 | -76.18751 | 3949 ft | 173 kts | 165° |
| 2026-04-23 00:46 | 20.02272 | -76.18143 | 4021 ft | 167 kts | 131° |
| 2026-04-23 00:46 | 20.01414 | -76.17248 | 3999 ft | 174 kts | 132° |
| 2026-04-23 00:47 | 20.00530 | -76.16340 | 3994 ft | 177 kts | 132° |
| 2026-04-23 00:47 | 19.99645 | -76.15421 | 3997 ft | 180 kts | 132° |
| 2026-04-23 00:47 | 19.98736 | -76.14477 | 4006 ft | 183 kts | 131° |
| 2026-04-23 00:47 | 19.97836 | -76.13546 | 4001 ft | 176 kts | 131° |
| 2026-04-23 00:48 | 19.96963 | -76.12655 | 3999 ft | 169 kts | 131° |
| 2026-04-23 00:48 | 19.96121 | -76.11807 | 4002 ft | 165 kts | 131° |
| 2026-04-23 00:48 | 19.95569 | -76.10805 | 3998 ft | 155 kts | 98° |
| 2026-04-23 00:48 | 19.95543 | -76.09674 | 4007 ft | 151 kts | 84° |
| 2026-04-23 00:49 | 19.95610 | -76.08571 | 4010 ft | 152 kts | 85° |
| 2026-04-23 00:49 | 19.95663 | -76.07416 | 4014 ft | 157 kts | 85° |
| 2026-04-23 00:49 | 19.95724 | -76.06245 | 3993 ft | 164 kts | 84° |
| 2026-04-23 00:49 | 19.95798 | -76.04993 | 3854 ft | 172 kts | 84° |
| 2026-04-23 00:50 | 19.95884 | -76.03735 | 3579 ft | 168 kts | 83° |
| 2026-04-23 00:50 | 19.95971 | -76.02515 | 3310 ft | 163 kts | 83° |
| 2026-04-23 00:50 | 19.96045 | -76.01348 | 3077 ft | 152 kts | 83° |
| 2026-04-23 00:50 | 19.96109 | -76.00290 | 2899 ft | 143 kts | 84° |
| 2026-04-23 00:51 | 19.96167 | -75.99233 | 2746 ft | 143 kts | 84° |
| 2026-04-23 00:51 | 19.96228 | -75.98174 | 2573 ft | 143 kts | 84° |
| 2026-04-23 00:51 | 19.96290 | -75.97127 | 2390 ft | 142 kts | 83° |
| 2026-04-23 00:51 | 19.96355 | -75.96078 | 2207 ft | 143 kts | 83° |
| 2026-04-23 00:52 | 19.96420 | -75.95017 | 2008 ft | 142 kts | 84° |
| 2026-04-23 00:52 | 19.96484 | -75.93976 | 1827 ft | 142 kts | 83° |
| 2026-04-23 00:52 | 19.96547 | -75.92925 | 1640 ft | 142 kts | 83° |
| 2026-04-23 00:52 | 19.96610 | -75.91892 | 1461 ft | 141 kts | 83° |
| 2026-04-23 00:53 | 19.96675 | -75.90845 | 1273 ft | 141 kts | 83° |
| 2026-04-23 00:53 | 19.96740 | -75.89835 | 1078 ft | 134 kts | 83° |
| 2026-04-23 00:53 | 19.96800 | -75.88843 | 922 ft | 137 kts | 83° |
| 2026-04-23 00:53 | 19.96862 | -75.87807 | 748 ft | 146 kts | 83° |
| 2026-04-23 00:54 | 19.96931 | -75.86722 | 530 ft | 147 kts | 82° |
| 2026-04-23 00:54 | 19.96973 | -75.85641 | 333 ft | 145 kts | 84° |
| 2026-04-23 00:54 | 19.96993 | -75.84641 | 237 ft | 113 kts | 88° |
| 2026-04-23 00:54 | 19.96993 | -75.84029 | 241 ft | 50 kts | 90° |
| 2026-04-23 00:55 | 19.96992 | -75.83777 | 241 ft | 10 kts | 94° |
| 2026-04-23 00:55 | 19.97032 | -75.83750 | 241 ft | 7 kts | 328° |
| 2026-04-23 00:55 | 19.97073 | -75.83788 | 241 ft | 8 kts | 316° |
| 2026-04-23 00:55 | 19.97121 | -75.83820 | 241 ft | 7 kts | 11° |
| 2026-04-23 00:56 | 19.97148 | -75.83782 | 240 ft | 6 kts | 58° |
| 2026-04-23 00:56 | 19.97180 | -75.83773 | 240 ft | 4 kts | 321° |
| 2026-04-23 00:56 | 19.97185 | -75.83786 | 240 ft | 0 kts | 278° |